Time;durP1;ratioP1;P1;durP2;ratioP2;P2;SDS_P1;SDS_P2;PMS_P1;PMS_P2;Temp;Humidity;BMP_temperature;BMP_pressure;BME280_temperature;BME280_humidity;BME280_pressure;Samples;Min_cycle;Max_cycle;Signal;HPM_P1;HPM_P2
2021/10/22 00:05:10;;;;;;;3.47;1.37;;;17.80;60.90;;;;;;10493957;28;20193;-65
2021/10/22 00:10:32;;;;;;;5.77;1.37;;;17.80;61.00;;;;;;10489220;28;20294;-66
2021/10/22 00:15:55;;;;;;;4.07;1.20;;;17.80;60.90;;;;;;10487086;28;20207;-65
2021/10/22 00:21:18;;;;;;;5.13;1.33;;;17.80;60.90;;;;;;10478210;28;20221;-65
2021/10/22 00:26:40;;;;;;;5.40;1.07;;;17.80;61.10;;;;;;10452606;28;20197;-65
2021/10/22 00:32:02;;;;;;;5.30;1.60;;;17.80;60.90;;;;;;10452876;28;20686;-65
2021/10/22 00:37:26;;;;;;;5.40;1.30;;;17.70;61.00;;;;;;10452655;28;20678;-65
2021/10/22 00:42:48;;;;;;;4.17;1.40;;;17.70;60.90;;;;;;10452213;28;20243;-65
2021/10/22 00:48:10;;;;;;;5.43;1.20;;;17.70;60.70;;;;;;10451908;28;20213;-65
2021/10/22 00:53:37;;;;;;;3.43;1.07;;;17.80;60.70;;;;;;10451174;28;20201;-65
2021/10/22 00:58:59;;;;;;;3.27;0.90;;;17.70;60.80;;;;;;10453291;28;20824;-65
2021/10/22 01:04:21;;;;;;;4.80;1.50;;;17.70;60.50;;;;;;10473800;28;20189;-65
2021/10/22 01:09:46;;;;;;;5.20;1.23;;;17.70;60.30;;;;;;10450364;28;20686;-65
2021/10/22 01:15:09;;;;;;;4.63;1.43;;;17.80;60.60;;;;;;10451286;28;20197;-66
2021/10/22 01:20:31;;;;;;;3.83;1.20;;;17.80;60.50;;;;;;10452443;28;20220;-65
2021/10/22 01:25:55;;;;;;;4.53;1.27;;;17.70;60.40;;;;;;10450414;28;20224;-65
2021/10/22 01:31:17;;;;;;;4.93;1.00;;;17.70;60.40;;;;;;10448766;28;20213;-65
2021/10/22 01:36:40;;;;;;;3.30;1.20;;;17.70;60.60;;;;;;10486120;28;20203;-65
2021/10/22 01:42:04;;;;;;;3.50;1.10;;;17.70;60.40;;;;;;10489179;28;20303;-65
2021/10/22 01:47:26;;;;;;;2.77;0.80;;;17.70;60.50;;;;;;10475572;28;20273;-66
2021/10/22 01:52:49;;;;;;;3.13;1.00;;;17.70;60.60;;;;;;10477817;28;20200;-65
2021/10/22 01:58:13;;;;;;;2.70;1.20;;;17.60;60.40;;;;;;10449243;28;20236;-65
2021/10/22 02:03:35;;;;;;;3.40;0.80;;;17.70;60.30;;;;;;10449798;28;20223;-65
2021/10/22 02:08:57;;;;;;;3.60;0.87;;;17.70;60.30;;;;;;10466806;28;20223;-66
2021/10/22 02:14:21;;;;;;;4.43;1.30;;;17.70;60.20;;;;;;10495431;28;20196;-65
2021/10/22 02:19:43;;;;;;;3.00;1.07;;;17.70;60.20;;;;;;10497031;28;20215;-65
2021/10/22 02:25:07;;;;;;;6.07;1.50;;;17.70;60.40;;;;;;10497577;28;20204;-65
2021/10/22 02:30:31;;;;;;;4.63;1.20;;;17.70;60.30;;;;;;10495901;28;20290;-64
2021/10/22 02:35:53;;;;;;;3.53;1.40;;;17.70;60.40;;;;;;10464601;28;20200;-65
2021/10/22 02:41:16;;;;;;;2.73;0.80;;;17.70;60.40;;;;;;10456435;28;20224;-65
2021/10/22 02:46:39;;;;;;;3.00;1.20;;;17.60;60.50;;;;;;10488168;28;20205;-64
2021/10/22 02:52:01;;;;;;;2.87;1.17;;;17.70;60.50;;;;;;10496540;28;20647;-65
2021/10/22 02:57:24;;;;;;;4.97;1.30;;;17.70;60.60;;;;;;10496034;28;20662;-64
2021/10/22 03:02:47;;;;;;;2.67;1.07;;;17.70;60.50;;;;;;10454650;28;20259;-65
2021/10/22 03:08:10;;;;;;;2.93;1.00;;;17.70;60.40;;;;;;10454470;28;20578;-64
2021/10/22 03:13:32;;;;;;;4.10;1.47;;;17.70;60.40;;;;;;10567088;22;20234;-70
2021/10/22 03:18:55;;;;;;;3.40;1.10;;;17.70;60.40;;;;;;10573109;28;20578;-71
2021/10/22 03:24:17;;;;;;;4.43;1.03;;;17.70;60.20;;;;;;10570327;28;20222;-70
2021/10/22 03:29:40;;;;;;;4.23;1.00;;;17.70;60.40;;;;;;10579865;28;20257;-70
2021/10/22 03:35:05;;;;;;;3.87;1.03;;;17.70;60.30;;;;;;10580827;28;20205;-71
2021/10/22 03:40:27;;;;;;;4.90;1.07;;;17.70;60.30;;;;;;10579732;28;20249;-71
2021/10/22 03:45:49;;;;;;;3.93;1.20;;;17.70;60.00;;;;;;10543486;28;20195;-70
2021/10/22 03:51:13;;;;;;;2.93;0.87;;;17.80;59.40;;;;;;10551835;28;20202;-70
2021/10/22 03:56:35;;;;;;;5.07;1.17;;;17.90;59.00;;;;;;10578908;28;20555;-70
2021/10/22 04:01:57;;;;;;;3.80;1.27;;;17.90;58.80;;;;;;10548110;28;20224;-70
2021/10/22 04:07:20;;;;;;;3.13;1.10;;;17.90;58.90;;;;;;10537422;28;20202;-70
2021/10/22 04:12:43;;;;;;;4.60;1.30;;;17.90;59.50;;;;;;10537076;28;20231;-68
2021/10/22 04:18:05;;;;;;;3.90;1.20;;;17.80;59.40;;;;;;10536799;28;20207;-71
2021/10/22 04:23:28;;;;;;;3.53;1.13;;;17.90;59.80;;;;;;10546163;28;20227;-71
2021/10/22 04:28:51;;;;;;;4.13;1.10;;;17.80;59.80;;;;;;10575118;28;20195;-70
2021/10/22 04:34:13;;;;;;;3.80;1.10;;;17.80;59.90;;;;;;10572390;28;20674;-70
2021/10/22 04:45:28;;;;;;;5.00;1.60;;;17.70;60.20;;;;;;10505478;28;20195;-70
2021/10/22 04:50:51;;;;;;;4.00;1.10;;;17.70;60.10;;;;;;10549566;28;20224;-71
2021/10/22 04:56:15;;;;;;;3.60;1.70;;;17.70;59.90;;;;;;10547336;28;20777;-70
2021/10/22 05:01:37;;;;;;;3.67;1.27;;;17.70;60.00;;;;;;10549824;28;20219;-71
2021/10/22 05:06:59;;;;;;;4.03;1.10;;;17.80;59.60;;;;;;10545702;28;20202;-70
2021/10/22 05:12:24;;;;;;;3.40;1.20;;;17.80;59.10;;;;;;10548687;28;20232;-70
2021/10/22 05:17:46;;;;;;;4.00;1.10;;;17.90;59.10;;;;;;10550229;28;20196;-70
2021/10/22 05:23:08;;;;;;;5.57;1.30;;;17.90;59.30;;;;;;10547574;28;20221;-70
2021/10/22 05:28:32;;;;;;;4.03;1.20;;;17.90;59.30;;;;;;10545604;28;20230;-70
2021/10/22 05:33:54;;;;;;;4.87;1.33;;;17.80;59.40;;;;;;10547318;28;20281;-70
2021/10/22 05:39:18;;;;;;;5.90;1.77;;;17.80;59.70;;;;;;10543561;28;20210;-70
2021/10/22 05:44:41;;;;;;;3.47;1.20;;;17.80;59.70;;;;;;10548280;28;20628;-70
2021/10/22 05:50:05;;;;;;;2.90;1.20;;;17.70;59.80;;;;;;10558321;28;20250;-70
2021/10/22 05:55:29;;;;;;;3.90;1.20;;;17.70;60.00;;;;;;10555173;28;20195;-69
2021/10/22 06:00:52;;;;;;;4.90;1.10;;;17.70;59.90;;;;;;10555551;28;20226;-70
2021/10/22 06:06:14;;;;;;;3.00;1.23;;;17.70;59.70;;;;;;10564941;28;20704;-71
2021/10/22 06:11:37;;;;;;;4.47;1.37;;;17.80;59.10;;;;;;10583601;28;20222;-70
2021/10/22 06:17:01;;;;;;;4.07;1.10;;;17.90;58.30;;;;;;10583734;28;20198;-71
2021/10/22 06:22:38;;;;;;;6.23;1.53;;;17.90;58.40;;;;;;10549656;28;20594;-71
2021/10/22 06:28:00;;;;;;;4.70;1.37;;;17.90;58.20;;;;;;10541870;28;20464;-70
2021/10/22 06:33:24;;;;;;;4.57;1.30;;;17.90;58.30;;;;;;10562615;28;20220;-69
2021/10/22 06:38:46;;;;;;;4.43;1.30;;;17.80;58.40;;;;;;10569416;28;20210;-70
2021/10/22 06:44:08;;;;;;;4.40;1.30;;;17.80;58.80;;;;;;10553667;28;20215;-70
2021/10/22 06:49:32;;;;;;;3.27;0.90;;;17.70;58.90;;;;;;10559925;28;20196;-71
2021/10/22 06:54:55;;;;;;;3.93;1.40;;;17.70;59.00;;;;;;10556582;28;20191;-70
2021/10/22 07:00:17;;;;;;;5.50;1.30;;;17.70;59.30;;;;;;10557113;28;20219;-71
2021/10/22 07:06:02;;;;;;;7.07;1.43;;;17.70;59.40;;;;;;10560225;28;20202;-70
2021/10/22 07:11:26;;;;;;;4.57;1.20;;;17.60;59.10;;;;;;10550402;28;20698;-71
2021/10/22 07:16:48;;;;;;;3.40;0.93;;;17.60;59.30;;;;;;10558336;28;20219;-71
2021/10/22 07:22:14;;;;;;;5.93;1.40;;;17.70;58.60;;;;;;10557836;28;20222;-71
2021/10/22 07:27:36;;;;;;;4.77;1.23;;;17.80;58.20;;;;;;10552825;28;20570;-71
2021/10/22 07:32:58;;;;;;;3.57;1.23;;;17.90;57.60;;;;;;10554770;28;20214;-70
2021/10/22 07:38:22;;;;;;;4.17;1.33;;;17.90;57.20;;;;;;10558905;28;20196;-70
2021/10/22 07:43:44;;;;;;;5.00;1.57;;;17.90;57.50;;;;;;10550044;28;20575;-70
2021/10/22 07:49:07;;;;;;;4.70;1.20;;;17.90;57.60;;;;;;10556264;28;20617;-71
2021/10/22 07:54:30;;;;;;;4.73;1.33;;;17.80;57.90;;;;;;10560982;28;20578;-71
2021/10/22 07:59:53;;;;;;;3.20;1.33;;;17.70;58.20;;;;;;10555006;28;20191;-70
2021/10/22 08:05:15;;;;;;;4.70;1.20;;;17.70;58.90;;;;;;10553653;28;20228;-71
2021/10/22 08:10:40;;;;;;;25.80;3.20;;;17.80;59.10;;;;;;10550023;28;20438;-70
2021/10/22 08:16:02;;;;;;;24.47;2.53;;;18.30;57.90;;;;;;10550112;28;20578;-72
2021/10/22 08:21:44;;;;;;;16.67;2.13;;;18.30;58.50;;;;;;10554797;28;20229;-72
2021/10/22 08:27:08;;;;;;;6.43;1.90;;;18.10;58.80;;;;;;10544070;28;20201;-70
2021/10/22 08:32:31;;;;;;;5.07;1.00;;;18.00;59.10;;;;;;10548706;28;20230;-72
2021/10/22 08:37:54;;;;;;;7.07;1.47;;;17.90;59.00;;;;;;10560739;28;20199;-65
2021/10/22 08:43:17;;;;;;;11.93;1.87;;;17.80;59.20;;;;;;10562993;28;20230;-65
2021/10/22 08:48:40;;;;;;;15.37;2.13;;;17.90;59.40;;;;;;10557916;28;20202;-66
2021/10/22 08:54:02;;;;;;;14.70;2.07;;;18.10;59.50;;;;;;10564726;28;20203;-65
2021/10/22 08:59:26;;;;;;;12.30;1.70;;;18.20;58.80;;;;;;10557201;28;20234;-65
2021/10/22 09:04:49;;;;;;;11.50;2.17;;;18.20;59.10;;;;;;10570166;28;20226;-64
2021/10/22 09:10:15;;;;;;;9.30;1.77;;;18.20;59.90;;;;;;10553561;28;20575;-64
2021/10/22 09:15:41;;;;;;;10.23;1.50;;;18.20;59.60;;;;;;10557309;28;20236;-62
2021/10/22 09:21:04;;;;;;;7.37;1.43;;;18.20;59.50;;;;;;10566698;28;20356;-64
2021/10/22 09:26:28;;;;;;;5.80;1.60;;;18.20;59.70;;;;;;10539430;28;20247;-64
2021/10/22 09:31:52;;;;;;;3.27;1.27;;;18.20;59.50;;;;;;10545585;28;20222;-63
2021/10/22 09:37:15;;;;;;;4.53;1.50;;;18.10;59.40;;;;;;10536250;28;20203;-63
2021/10/22 09:42:48;;;;;;;6.77;1.20;;;18.20;59.30;;;;;;10553902;22;20695;-64
2021/10/22 09:48:25;;;;;;;4.17;1.40;;;18.20;59.50;;;;;;10475268;28;20211;-64
2021/10/22 09:53:48;;;;;;;4.70;1.20;;;18.30;59.60;;;;;;10474298;28;20339;-64
2021/10/22 09:59:11;;;;;;;3.97;1.37;;;18.30;60.00;;;;;;10468950;28;20209;-64
2021/10/22 10:04:35;;;;;;;3.73;1.30;;;18.20;59.40;;;;;;10484672;28;20715;-64
2021/10/22 10:09:57;;;;;;;5.43;1.37;;;18.30;59.30;;;;;;10486876;28;20487;-64
2021/10/22 10:15:19;;;;;;;4.27;1.30;;;18.30;60.00;;;;;;10467562;28;20232;-64
2021/10/22 10:20:43;;;;;;;4.07;1.30;;;18.20;59.40;;;;;;10486998;28;20201;-64
2021/10/22 10:26:28;;;;;;;4.30;1.10;;;18.20;59.70;;;;;;10486019;28;20291;-64
2021/10/22 10:32:00;;;;;;;3.10;1.13;;;18.20;59.80;;;;;;10491965;28;20290;-64
2021/10/22 10:37:30;;;;;;;3.47;1.30;;;18.10;60.00;;;;;;10497522;28;20193;-65
2021/10/22 10:42:53;;;;;;;3.67;1.07;;;18.10;60.20;;;;;;10499231;28;20220;-64
2021/10/22 10:48:19;;;;;;;4.07;1.47;;;18.10;60.60;;;;;;10478739;28;20335;-64
2021/10/22 10:53:44;;;;;;;4.30;1.33;;;18.10;60.70;;;;;;10490651;28;20246;-64
2021/10/22 10:59:06;;;;;;;2.93;0.97;;;18.00;60.70;;;;;;10491309;28;20212;-64
2021/10/22 11:04:49;;;;;;;3.83;1.90;;;18.10;60.80;;;;;;10496753;28;20599;-64
2021/10/22 11:10:47;;;;;;;6.00;1.93;;;18.10;60.50;;;;;;10495426;28;20204;-64
2021/10/22 11:16:11;;;;;;;5.43;1.60;;;18.10;61.50;;;;;;10487734;28;20232;-65
2021/10/22 11:21:36;;;;;;;5.53;2.00;;;18.10;61.00;;;;;;10490510;28;20229;-64
2021/10/22 11:27:02;;;;;;;5.90;1.97;;;18.10;61.20;;;;;;10495223;28;20212;-65
2021/10/22 11:32:26;;;;;;;8.90;2.23;;;18.10;61.50;;;;;;10496990;28;20213;-65
2021/10/22 11:37:48;;;;;;;7.60;2.07;;;18.10;61.80;;;;;;10484669;28;20747;-64
2021/10/22 11:43:13;;;;;;;7.47;1.93;;;18.10;61.70;;;;;;10484084;28;20228;-64
2021/10/22 11:48:35;;;;;;;4.30;1.70;;;18.00;61.40;;;;;;10486131;28;20283;-65
2021/10/22 11:53:57;;;;;;;4.37;1.43;;;17.90;61.60;;;;;;10485265;28;20219;-65
2021/10/22 11:59:21;;;;;;;4.97;1.53;;;17.90;61.80;;;;;;10494421;28;20193;-65
2021/10/22 12:04:45;;;;;;;4.80;1.37;;;17.80;61.90;;;;;;10487352;28;20236;-64
2021/10/22 12:10:09;;;;;;;3.63;1.37;;;17.80;62.20;;;;;;10474951;28;20192;-64
2021/10/22 12:15:34;;;;;;;4.17;1.50;;;17.80;62.40;;;;;;10494655;28;20232;-65
2021/10/22 12:20:56;;;;;;;3.97;1.37;;;17.80;62.40;;;;;;10495647;28;20211;-63
2021/10/22 12:26:22;;;;;;;3.63;1.40;;;18.10;62.30;;;;;;10489050;28;20201;-67
2021/10/22 12:31:52;;;;;;;3.40;1.10;;;18.00;61.90;;;;;;10488623;28;20729;-67
2021/10/22 12:37:14;;;;;;;6.95;1.55;;;18.00;62.30;;;;;;10480096;28;20425;-64
2021/10/22 12:42:38;;;;;;;5.90;1.23;;;18.30;61.90;;;;;;10486020;28;20259;-66
2021/10/22 12:48:08;;;;;;;3.37;1.23;;;18.30;62.20;;;;;;10493843;28;20575;-67
2021/10/22 12:53:33;;;;;;;4.07;1.17;;;18.20;62.40;;;;;;10492214;28;20691;-70
2021/10/22 12:58:59;;;;;;;7.43;1.13;;;18.10;62.60;;;;;;10494760;28;20203;-66
2021/10/22 13:04:25;;;;;;;2.78;1.20;;;18.10;62.80;;;;;;10494533;28;20953;-65
2021/10/22 13:09:50;;;;;;;2.83;1.03;;;18.20;62.70;;;;;;10487036;28;20686;-64
2021/10/22 13:20:43;;;;;;;3.60;1.33;;;18.10;62.90;;;;;;10497046;27;20943;-61
2021/10/22 13:26:05;;;;;;;3.00;1.10;;;18.10;62.90;;;;;;10469430;28;20199;-62
2021/10/22 13:31:28;;;;;;;2.87;1.10;;;18.10;63.00;;;;;;10480404;28;20216;-61
2021/10/22 13:36:52;;;;;;;4.93;0.93;;;18.10;63.10;;;;;;10484503;28;20212;-62
2021/10/22 13:42:16;;;;;;;3.43;1.10;;;18.00;63.20;;;;;;10472924;28;20217;-62
2021/10/22 13:47:39;;;;;;;3.15;1.30;;;18.00;63.50;;;;;;10472003;28;21002;-62
2021/10/22 13:53:03;;;;;;;1.57;0.70;;;18.50;61.60;;;;;;10477402;28;20196;-62
2021/10/22 13:58:25;;;;;;;2.67;0.80;;;18.20;62.70;;;;;;10483125;28;20220;-64
2021/10/22 14:03:47;;;;;;;2.60;1.10;;;18.00;63.40;;;;;;10482181;28;20196;-62
2021/10/22 14:09:10;;;;;;;3.70;1.07;;;17.90;63.60;;;;;;10483099;28;20238;-62
2021/10/22 14:14:39;;;;;;;3.17;1.20;;;17.90;63.30;;;;;;10469957;28;20205;-62
2021/10/22 14:23:06;;;;;;;3.90;1.10;;;18.10;63.00;;;;;;10470779;28;20224;-63
2021/10/22 14:31:39;;;;;;;2.40;1.37;;;18.10;61.70;;;;;;10452942;28;20323;-64
2021/10/22 14:37:02;;;;;;;1.90;1.00;;;18.10;61.70;;;;;;10434641;28;20215;-62
2021/10/22 14:42:28;;;;;;;3.77;1.30;;;18.10;61.70;;;;;;10445243;28;20669;-63
2021/10/22 14:47:54;;;;;;;3.43;1.30;;;18.10;62.20;;;;;;10454424;28;20259;-62
2021/10/22 14:53:20;;;;;;;4.07;1.60;;;18.00;62.40;;;;;;10445333;28;20198;-65
2021/10/22 14:58:44;;;;;;;5.93;2.20;;;18.00;62.60;;;;;;10479648;28;20213;-64
2021/10/22 15:04:07;;;;;;;4.13;1.97;;;18.00;63.00;;;;;;10526819;28;20192;-62
2021/10/22 15:09:30;;;;;;;3.83;2.00;;;17.90;63.10;;;;;;10535347;28;20712;-63
2021/10/22 15:14:53;;;;;;;5.00;2.17;;;17.90;63.30;;;;;;10520896;28;20653;-63
2021/10/22 15:20:15;;;;;;;5.90;2.23;;;17.90;63.30;;;;;;10527261;28;20291;-62
2021/10/22 15:25:37;;;;;;;7.07;2.23;;;17.90;63.60;;;;;;10536402;28;20200;-62
2021/10/22 15:31:01;;;;;;;4.63;2.03;;;17.80;62.30;;;;;;10534115;28;20208;-63
2021/10/22 15:36:23;;;;;;;3.20;1.77;;;17.70;62.10;;;;;;10531296;28;20229;-63
2021/10/22 15:41:45;;;;;;;4.77;1.80;;;17.80;61.50;;;;;;10531205;28;20238;-63
2021/10/22 15:47:03;;;;;;;3.73;1.80;;;17.90;61.10;;;;;;10365247;28;20233;-64
2021/10/22 15:52:26;;;;;;;3.40;1.33;;;18.10;60.70;;;;;;10365571;28;20210;-64
2021/10/22 15:57:48;;;;;;;2.20;1.10;;;18.20;59.90;;;;;;10409418;28;20367;-64
2021/10/22 16:03:13;;;;;;;2.13;0.97;;;18.30;59.50;;;;;;10410078;28;20692;-64
2021/10/22 16:08:43;;;;;;;3.53;1.30;;;18.30;59.40;;;;;;10410703;28;20198;-64
2021/10/22 16:14:13;;;;;;;2.97;1.80;;;18.30;59.80;;;;;;10406008;28;20602;-64
2021/10/22 16:19:37;;;;;;;3.23;1.53;;;18.30;60.10;;;;;;10406807;28;20708;-63
2021/10/22 16:25:00;;;;;;;2.90;1.50;;;18.20;60.30;;;;;;10396463;28;20229;-63
2021/10/22 16:30:22;;;;;;;2.80;1.63;;;18.20;60.60;;;;;;10408369;28;20197;-64
2021/10/22 16:35:45;;;;;;;3.10;1.70;;;18.20;60.80;;;;;;10410191;28;20225;-64
2021/10/22 16:41:08;;;;;;;2.67;1.27;;;18.10;61.10;;;;;;10409308;28;20229;-63
2021/10/22 16:46:30;;;;;;;3.57;1.10;;;18.10;61.50;;;;;;10408406;28;20256;-64
2021/10/22 16:51:55;;;;;;;3.93;1.70;;;18.00;61.90;;;;;;10399526;28;20608;-63
2021/10/22 16:57:17;;;;;;;3.43;1.53;;;18.00;61.80;;;;;;10392250;28;20724;-64
2021/10/22 17:02:39;;;;;;;3.33;1.80;;;17.90;61.70;;;;;;10399855;28;20233;-63
2021/10/22 17:08:03;;;;;;;3.90;1.50;;;17.90;62.30;;;;;;10407161;28;20205;-63
2021/10/22 17:13:25;;;;;;;6.70;5.97;;;17.90;62.00;;;;;;10392089;28;20220;-64
2021/10/22 17:18:47;;;;;;;5.20;3.67;;;18.00;61.00;;;;;;10407497;28;20698;-64
2021/10/22 17:24:10;;;;;;;3.80;2.53;;;18.00;60.40;;;;;;10394808;28;20759;-64
2021/10/22 17:29:32;;;;;;;3.67;2.20;;;18.10;60.10;;;;;;10407450;28;20186;-64
2021/10/22 17:34:55;;;;;;;5.93;1.90;;;18.00;60.20;;;;;;10402489;28;20222;-65
2021/10/22 17:40:18;;;;;;;5.15;2.13;;;18.10;60.30;;;;;;10404599;28;20438;-62
2021/10/22 17:45:41;;;;;;;3.77;1.70;;;18.80;58.20;;;;;;10395294;28;20228;-65
2021/10/22 17:51:03;;;;;;;3.30;1.97;;;18.30;59.80;;;;;;10405723;28;20202;-63
2021/10/22 17:56:27;;;;;;;5.57;1.70;;;18.10;60.20;;;;;;10403036;28;20222;-63
2021/10/22 18:01:49;;;;;;;4.83;2.10;;;18.00;60.60;;;;;;10391143;28;20429;-63
2021/10/22 18:07:11;;;;;;;4.97;1.90;;;18.30;60.20;;;;;;10414204;28;20428;-63
2021/10/22 18:12:34;;;;;;;5.07;3.73;;;18.20;60.30;;;;;;10402384;28;20745;-64
2021/10/22 18:17:56;;;;;;;4.97;2.77;;;18.10;60.80;;;;;;10407075;28;20218;-63
2021/10/22 18:23:20;;;;;;;4.53;2.47;;;18.00;61.40;;;;;;10404142;28;20252;-62
2021/10/22 18:28:45;;;;;;;3.07;1.90;;;17.90;61.70;;;;;;10409681;28;20232;-64
2021/10/22 18:34:07;;;;;;;5.43;2.67;;;17.90;61.80;;;;;;10408474;28;20224;-63
2021/10/22 18:39:29;;;;;;;5.80;2.63;;;17.90;61.80;;;;;;10395043;28;20457;-63
2021/10/22 18:44:53;;;;;;;3.37;2.00;;;18.10;60.90;;;;;;10388820;28;20224;-63
2021/10/22 18:50:15;;;;;;;4.93;2.10;;;18.00;60.70;;;;;;10405613;28;20700;-63
2021/10/22 18:55:37;;;;;;;5.30;2.07;;;18.00;60.50;;;;;;10399478;28;20229;-62
2021/10/22 19:01:01;;;;;;;3.17;2.00;;;18.00;60.30;;;;;;10401351;28;20225;-61
2021/10/22 19:06:34;;;;;;;4.83;2.40;;;18.00;60.00;;;;;;10399938;28;20218;-62
2021/10/22 19:11:56;;;;;;;5.33;2.50;;;18.00;59.80;;;;;;10399886;28;20233;-61
2021/10/22 19:17:21;;;;;;;4.37;2.17;;;18.00;59.90;;;;;;10400693;28;20307;-61
2021/10/22 19:22:43;;;;;;;3.00;1.90;;;18.00;60.10;;;;;;10401590;28;20225;-62
2021/10/22 19:28:05;;;;;;;4.07;2.17;;;17.90;60.00;;;;;;10400824;28;20197;-63
2021/10/22 19:33:28;;;;;;;4.13;1.73;;;17.90;60.20;;;;;;10403424;28;20217;-62
2021/10/22 19:38:53;;;;;;;4.13;2.13;;;17.90;60.30;;;;;;10406030;28;20222;-63
2021/10/22 19:44:15;;;;;;;4.00;1.93;;;17.90;60.40;;;;;;10408307;28;20225;-62
2021/10/22 19:49:40;;;;;;;3.50;1.87;;;17.80;60.40;;;;;;10399818;28;20666;-62
2021/10/22 19:55:02;;;;;;;6.77;2.40;;;17.80;60.40;;;;;;10400221;28;20225;-62
2021/10/22 20:00:24;;;;;;;3.63;1.90;;;17.80;60.60;;;;;;10400674;28;20225;-62
2021/10/22 20:05:47;;;;;;;5.07;2.40;;;17.80;60.60;;;;;;10399257;28;20221;-62
2021/10/22 20:11:10;;;;;;;3.17;1.70;;;17.80;60.60;;;;;;10398995;28;20197;-61
2021/10/22 20:16:33;;;;;;;4.77;2.00;;;17.80;60.40;;;;;;10403953;28;20574;-62
2021/10/22 20:21:56;;;;;;;4.20;1.63;;;17.80;60.00;;;;;;10400959;28;20380;-60
2021/10/22 20:27:18;;;;;;;2.97;1.73;;;17.90;59.50;;;;;;10378146;28;20258;-62
2021/10/22 20:32:40;;;;;;;4.13;1.90;;;18.00;58.90;;;;;;10388104;28;20225;-62
2021/10/22 20:38:04;;;;;;;3.10;1.50;;;18.00;58.50;;;;;;10410408;28;20220;-62
2021/10/22 20:43:26;;;;;;;4.40;1.57;;;18.00;58.20;;;;;;10409593;28;20249;-62
2021/10/22 20:49:00;;;;;;;4.77;1.80;;;18.00;58.30;;;;;;10395590;28;20210;-62
2021/10/22 21:00:06;;;;;;;4.10;1.60;;;17.90;59.00;;;;;;10407278;28;20717;-62
2021/10/22 21:05:28;;;;;;;4.57;1.40;;;17.90;59.30;;;;;;10410175;28;20771;-62
2021/10/22 21:10:52;;;;;;;4.13;1.50;;;17.80;59.30;;;;;;10380735;28;20205;-62
2021/10/22 21:16:14;;;;;;;2.33;1.43;;;17.80;59.50;;;;;;10368967;28;20225;-62
2021/10/22 21:21:37;;;;;;;3.27;1.87;;;17.80;59.60;;;;;;10373962;28;20267;-63
2021/10/22 21:27:00;;;;;;;2.90;1.23;;;17.80;59.70;;;;;;10406843;28;20221;-62
2021/10/22 21:32:22;;;;;;;4.87;1.50;;;17.70;59.80;;;;;;10369630;28;20210;-61
2021/10/22 21:37:44;;;;;;;4.23;1.27;;;17.70;59.80;;;;;;10371608;28;20215;-63
2021/10/22 21:43:09;;;;;;;5.97;1.53;;;17.70;59.80;;;;;;10394325;23;20229;-66
2021/10/22 21:48:31;;;;;;;3.73;1.37;;;17.70;59.80;;;;;;10364979;28;20232;-66
2021/10/22 21:53:53;;;;;;;4.07;1.40;;;17.70;60.00;;;;;;10367434;28;20273;-66
2021/10/22 21:59:17;;;;;;;2.57;1.13;;;17.70;59.80;;;;;;10374386;28;20717;-66
2021/10/22 22:04:40;;;;;;;4.90;1.57;;;17.70;59.60;;;;;;10338450;28;20629;-66
2021/10/22 22:10:02;;;;;;;4.27;1.60;;;17.70;59.40;;;;;;10347056;28;20582;-67
2021/10/22 22:15:25;;;;;;;3.77;1.33;;;17.70;59.40;;;;;;10360782;28;20222;-66
2021/10/22 22:20:48;;;;;;;3.13;1.43;;;17.70;59.30;;;;;;10355817;28;20705;-66
2021/10/22 22:26:11;;;;;;;3.90;1.33;;;17.70;59.20;;;;;;10348451;28;20631;-66
2021/10/22 22:31:35;;;;;;;5.93;1.60;;;17.70;59.30;;;;;;10335181;28;20680;-66
2021/10/22 22:36:57;;;;;;;3.43;1.40;;;17.70;59.40;;;;;;10334916;28;20390;-65
2021/10/22 22:42:20;;;;;;;3.13;1.37;;;17.60;59.40;;;;;;10335682;28;20749;-66
2021/10/22 22:47:45;;;;;;;4.17;1.77;;;17.60;59.50;;;;;;10351499;28;20199;-66
2021/10/22 22:53:07;;;;;;;3.00;1.47;;;17.60;59.50;;;;;;10346702;28;20226;-66
2021/10/22 22:58:30;;;;;;;3.80;1.47;;;17.60;59.50;;;;;;10357499;28;20810;-66
2021/10/22 23:03:53;;;;;;;3.53;1.40;;;17.60;59.60;;;;;;10356348;28;20222;-65
2021/10/22 23:09:15;;;;;;;2.13;1.03;;;17.60;59.50;;;;;;10373318;28;20213;-66
2021/10/22 23:14:38;;;;;;;2.53;1.30;;;17.60;59.60;;;;;;10355527;28;20237;-66
2021/10/22 23:20:01;;;;;;;3.43;1.30;;;17.60;59.50;;;;;;10372206;28;20221;-67
2021/10/22 23:25:23;;;;;;;4.60;1.47;;;17.60;59.30;;;;;;10346095;28;20602;-66
2021/10/22 23:30:46;;;;;;;4.03;1.77;;;17.60;59.30;;;;;;10354641;28;20618;-66
2021/10/22 23:36:09;;;;;;;2.83;1.00;;;17.60;59.40;;;;;;10334796;28;20717;-66
2021/10/22 23:41:31;;;;;;;4.80;1.23;;;17.60;59.40;;;;;;10349695;28;20218;-65
2021/10/22 23:46:53;;;;;;;4.27;1.00;;;17.60;59.40;;;;;;10358395;28;20230;-66
2021/10/22 23:52:17;;;;;;;4.83;1.33;;;17.60;59.50;;;;;;10339587;28;20187;-64
2021/10/22 23:57:40;;;;;;;4.20;1.50;;;17.60;59.40;;;;;;10367952;28;20195;-66
